Luka, Czech Republic

3:09 PM CET on December 27, 2014 (GMT +0100)
Vilemov | Change Station
CLOSE
Current Station
Personal Weather Station
Location: Vilemov, MORAVA
Elevation: 1253 ft
Nearby Weather Stations

Elev 1253 ft 49.64 °N, 17.00 °E | Updated 9 minutes ago

Clear
Clear
23.2 °F
Feels Like 19 °F
N
3.1
Wind Variable Wind from East
Gusts 4.5 mph

Today
High -- | Low -- °F
--% Chance of Precip.
Yesterday
High -- | Low -- °F
Precip. -- in
7:48 AM 3:57 PM
Waxing Crescent, 37% visible
Pressure 29.77 in
Visibility -9999.0 miles
Clouds
Windchill 19 °F
Dew Point 11 °F
Humidity 60%
Rainfall 0.00 in
Snow Depth Not available.
UV Not available.
Pollen Not available.
Air Quality Not available.
Flu Activity Not available.
METAR LKTB 271400Z 09011KT CAVOK M03/M11 Q1008 R28/41//95 NOSIG

More Conditions Fewer Conditions

Pressure 29.77 in
Visibility -9999.0 miles
Clouds
Windchill 19 °F
Dew Point 11 °F
Humidity 60%
Rainfall 0.00 in
Snow Depth Not available.
UV Not available.
Pollen Not available.
Air Quality Not available.
Flu Activity Not available.
METAR LKTB 271400Z 09011KT CAVOK M03/M11 Q1008 R28/41//95 NOSIG

More Conditions Fewer Conditions

10-Day Weather Forecast

Almanac

Astronomy

Dec. 27, 2014 Rise Set
Actual Time
Civil Twilight
Nautical Twilight
Astronomical Twilight
Moon
Length of Visible Light
Length of Day
Tomorrow will be .
, % of the Moon is Illuminated

Today's Extremes

Country Highs Country Lows

Community

WunderPhotos

Upload Photos

1,780,905 photos uploaded!

WunderBlogs® & News

Nearby

Air Quality

  Air Quality AQ Index Pollutant
Not available.

Snow Depth

Station Depth Elevation

Earthquake Activity

City Distance Mag. Time & Date
Minimum magnitude displayed is 2.5.

Coastal Water Temperatures

Place Temperature

Nearby Weather Stations